Time;durP1;ratioP1;P1;durP2;ratioP2;P2;SDS_P1;SDS_P2;PMS_P1;PMS_P2;Temp;Humidity;BMP_temperature;BMP_pressure;BME280_temperature;BME280_humidity;BME280_pressure;Samples;Min_cycle;Max_cycle;Signal;HPM_P1;HPM_P2
2023/04/10 00:00:03;;;;;;;5.40;4.03;;;12.00;99.90;;;11.31;100.00;101431.81;4201343;28;20086;-76
2023/04/10 00:02:04;;;;;;;5.40;3.85;;;12.00;99.90;;;11.30;100.00;101436.25;4187964;28;20018;-76
2023/04/10 00:04:05;;;;;;;8.88;4.53;;;12.00;99.90;;;11.34;100.00;101442.94;4185079;28;20480;-76
2023/04/10 00:06:06;;;;;;;8.18;4.13;;;12.00;99.90;;;11.34;100.00;101442.09;4185183;28;20044;-76
2023/04/10 00:08:07;;;;;;;8.57;4.20;;;12.00;99.90;;;11.33;100.00;101443.88;4176283;28;20032;-76
2023/04/10 00:10:08;;;;;;;4.85;3.88;;;12.00;99.90;;;11.30;100.00;101440.69;4197297;28;20025;-76
2023/04/10 00:12:10;;;;;;;7.40;4.10;;;12.00;99.90;;;11.34;100.00;101442.94;4185860;28;20512;-76
2023/04/10 00:14:11;;;;;;;7.07;4.07;;;12.00;99.90;;;11.31;100.00;101437.94;4184754;28;20033;-76
2023/04/10 00:16:11;;;;;;;7.25;4.50;;;12.00;99.90;;;11.29;100.00;101428.50;4186789;28;20036;-76
2023/04/10 00:18:12;;;;;;;5.65;4.22;;;12.00;99.90;;;11.27;100.00;101423.34;4188428;28;20032;-76
2023/04/10 00:20:13;;;;;;;7.30;4.32;;;12.00;99.90;;;11.27;100.00;101422.50;4194841;28;20110;-76
2023/04/10 00:22:14;;;;;;;9.32;4.13;;;12.00;99.90;;;11.24;100.00;101418.34;4205192;28;20522;-75
2023/04/10 00:24:15;;;;;;;5.72;4.38;;;12.00;99.90;;;11.24;100.00;101420.13;4205147;28;20031;-75
2023/04/10 00:26:16;;;;;;;6.93;4.38;;;12.00;99.90;;;11.26;100.00;101424.28;4203815;28;20028;-76
2023/04/10 00:28:17;;;;;;;7.90;4.43;;;12.00;99.90;;;11.22;100.00;101416.81;4204912;28;20029;-76
2023/04/10 00:30:19;;;;;;;8.98;4.53;;;11.90;99.90;;;11.24;100.00;101420.13;4200006;28;20033;-76
2023/04/10 00:32:20;;;;;;;8.23;5.45;;;11.90;99.90;;;11.23;100.00;101421.13;4187150;28;20059;-76
2023/04/10 00:34:21;;;;;;;7.38;4.70;;;11.90;99.90;;;11.18;100.00;101415.44;4188335;28;20029;-76
2023/04/10 00:36:22;;;;;;;9.30;4.75;;;11.90;99.90;;;11.22;100.00;101422.94;4202100;28;20029;-76
2023/04/10 00:38:23;;;;;;;8.02;4.72;;;11.90;99.90;;;11.19;100.00;101417.09;4203730;28;20118;-76
2023/04/10 00:40:24;;;;;;;8.23;4.40;;;11.90;99.90;;;11.14;100.00;101420.16;4198430;28;20031;-75
2023/04/10 00:42:25;;;;;;;10.18;5.70;;;11.90;99.90;;;11.16;100.00;101420.03;4203540;28;20024;-75
2023/04/10 00:44:27;;;;;;;8.35;4.65;;;11.90;99.90;;;11.10;100.00;101408.25;4195488;28;20446;-75
2023/04/10 00:46:30;;;;;;;7.97;5.22;;;11.80;99.90;;;11.13;100.00;101404.47;4188485;28;20033;-75
2023/04/10 00:48:30;;;;;;;11.68;5.13;;;11.80;99.90;;;11.12;100.00;101395.72;4186997;28;20036;-76
2023/04/10 00:50:31;;;;;;;8.02;4.45;;;11.80;99.90;;;11.12;100.00;101390.44;4195710;28;20052;-76
2023/04/10 00:52:32;;;;;;;5.70;4.10;;;11.80;99.90;;;11.10;100.00;101382.69;4201281;28;20056;-76
2023/04/10 00:54:35;;;;;;;8.82;4.85;;;11.80;99.90;;;11.13;100.00;101384.19;4203443;28;20032;-76
2023/04/10 00:56:36;;;;;;;9.88;5.53;;;11.90;99.90;;;11.13;100.00;101378.91;4186790;28;20036;-76
2023/04/10 00:58:37;;;;;;;7.72;4.85;;;11.90;99.90;;;11.15;100.00;101378.75;4197997;28;20030;-76
2023/04/10 01:00:38;;;;;;;7.85;5.07;;;11.90;99.90;;;11.15;100.00;101370.81;4202980;28;20025;-76
2023/04/10 01:02:39;;;;;;;10.90;5.60;;;11.90;99.90;;;11.11;100.00;101362.34;4188206;28;20028;-76
2023/04/10 01:04:40;;;;;;;7.85;5.28;;;11.90;99.90;;;11.11;100.00;101368.47;4186617;28;20048;-76
2023/04/10 01:07:14;;;;;;;7.55;5.30;;;11.80;99.90;;;11.17;100.00;101372.34;4186632;28;20043;-76
2023/04/10 01:09:47;;;;;;;8.70;5.60;;;11.90;99.90;;;11.15;100.00;101378.75;4193215;28;20028;-76
2023/04/10 01:12:10;;;;;;;9.43;5.35;;;11.90;99.90;;;11.17;100.00;101371.53;4199443;28;20107;-76
2023/04/10 01:14:32;;;;;;;7.85;5.93;;;11.80;99.90;;;11.19;100.00;101359.84;4202960;28;20124;-75
2023/04/10 01:16:50;;;;;;;10.50;5.60;;;11.90;99.90;;;11.22;100.00;101369.28;4204110;28;20036;-76
2023/04/10 01:19:20;;;;;;;10.40;6.10;;;11.90;99.90;;;11.21;100.00;101367.63;4203231;28;20035;-76
2023/04/10 01:21:22;;;;;;;8.20;5.40;;;11.90;99.90;;;11.22;100.00;101358.72;4191871;28;20025;-76
2023/04/10 01:24:03;;;;;;;7.63;4.88;;;11.90;99.90;;;11.24;100.00;101362.88;4186110;28;20021;-76
2023/04/10 01:26:13;;;;;;;7.45;5.20;;;12.00;99.90;;;11.23;100.00;101358.56;4186250;28;20094;-76
2023/04/10 01:28:37;;;;;;;10.98;5.63;;;12.00;99.90;;;11.28;100.00;101366.06;4201830;28;20024;-76
2023/04/10 01:30:40;;;;;;;11.85;5.30;;;12.00;99.90;;;11.28;100.00;101358.13;4196301;28;20036;-76
2023/04/10 01:32:42;;;;;;;9.32;5.68;;;12.00;99.90;;;11.29;100.00;101360.63;4186372;28;20408;-76
2023/04/10 01:34:48;;;;;;;18.67;6.90;;;12.00;99.90;;;11.33;100.00;101361.16;4183963;28;20033;-76
2023/04/10 01:36:58;;;;;;;10.82;5.68;;;12.00;99.90;;;11.37;100.00;101373.97;4202750;28;20504;-76
2023/04/10 01:39:00;;;;;;;10.18;5.65;;;12.10;99.90;;;11.38;100.00;101364.22;4203966;28;20029;-76
2023/04/10 01:41:01;;;;;;;8.90;5.93;;;12.10;99.90;;;11.41;100.00;101361.28;4190722;28;20017;-76
2023/04/10 01:43:08;;;;;;;12.65;6.68;;;12.10;99.90;;;11.43;100.00;101356.69;4198159;28;20055;-76
2023/04/10 01:45:17;;;;;;;10.02;5.78;;;12.20;99.90;;;11.46;100.00;101356.41;4186045;28;20028;-76
2023/04/10 01:47:18;;;;;;;8.48;5.72;;;12.10;99.90;;;11.44;100.00;101347.78;4202671;28;20035;-76
2023/04/10 01:49:20;;;;;;;11.43;6.22;;;12.10;99.90;;;11.44;100.00;101350.44;4202460;28;20107;-76
2023/04/10 01:51:22;;;;;;;9.40;6.28;;;12.10;99.90;;;11.46;100.00;101345.81;4180830;28;20030;-76
2023/04/10 01:53:24;;;;;;;12.13;7.95;;;12.20;99.90;;;11.46;100.00;101340.53;4202574;28;20020;-76
2023/04/10 01:55:26;;;;;;;8.57;6.22;;;12.20;99.90;;;11.45;100.00;101345.00;4203691;28;20047;-76
2023/04/10 01:57:30;;;;;;;12.35;7.38;;;12.10;99.90;;;11.47;100.00;101363.31;4202232;28;20067;-76
2023/04/10 01:59:32;;;;;;;11.55;6.13;;;12.10;99.90;;;11.44;100.00;101366.28;4202281;28;20024;-76
2023/04/10 02:01:33;;;;;;;14.02;7.47;;;12.10;99.90;;;11.43;100.00;101365.44;4193777;28;20451;-76
2023/04/10 02:03:34;;;;;;;9.57;6.25;;;12.20;99.90;;;11.41;100.00;101362.09;4186979;28;20823;-76
2023/04/10 02:06:15;;;;;;;9.93;6.05;;;12.20;99.90;;;11.42;100.00;101360.28;4186766;28;20070;-76
2023/04/10 02:08:49;;;;;;;10.30;6.38;;;12.10;99.90;;;11.40;100.00;101357.81;4185870;28;20029;-76
2023/04/10 02:11:01;;;;;;;14.00;5.63;;;12.10;99.90;;;11.35;100.00;101348.66;4190437;28;20128;-76
2023/04/10 02:13:09;;;;;;;11.55;6.57;;;12.00;99.90;;;11.34;100.00;101344.34;4202223;28;20608;-76
2023/04/10 02:15:11;;;;;;;11.13;5.50;;;12.00;99.90;;;11.29;100.00;101351.91;4203116;28;20024;-76
2023/04/10 02:17:18;;;;;;;10.15;6.40;;;12.00;99.90;;;11.25;100.00;101347.88;4202165;28;20028;-76
2023/04/10 02:19:19;;;;;;;10.23;6.72;;;12.00;99.90;;;11.23;100.00;101334.00;4202140;28;20515;-76
2023/04/10 02:21:20;;;;;;;9.52;5.35;;;12.00;99.90;;;11.20;100.00;101324.53;4190885;28;20028;-76
2023/04/10 02:23:22;;;;;;;11.90;6.90;;;11.90;99.90;;;11.18;100.00;101360.81;4185326;28;20435;-76
2023/04/10 02:25:23;;;;;;;10.85;6.22;;;11.90;99.90;;;11.15;100.00;101352.34;4185501;28;20435;-76
2023/04/10 02:27:29;;;;;;;14.38;6.53;;;11.90;99.90;;;11.13;100.00;101343.75;4192913;28;20027;-76
2023/04/10 02:29:30;;;;;;;10.70;5.97;;;11.90;99.90;;;11.16;100.00;101332.91;4202847;28;20387;-76
2023/04/10 02:31:31;;;;;;;12.88;6.57;;;11.80;99.90;;;11.14;100.00;101340.13;4202864;28;20040;-76
2023/04/10 02:33:32;;;;;;;8.82;5.78;;;11.80;99.90;;;11.15;100.00;101344.41;4203120;28;20054;-76
2023/04/10 02:35:33;;;;;;;11.45;6.43;;;11.80;99.90;;;11.11;100.00;101331.50;4202826;28;20024;-76
2023/04/10 02:37:35;;;;;;;13.65;6.22;;;11.80;99.90;;;11.16;100.00;101332.91;4189574;28;20112;-76
2023/04/10 02:39:36;;;;;;;12.32;6.70;;;11.80;99.90;;;11.13;100.00;101327.91;4201461;28;20035;-76
2023/04/10 02:41:36;;;;;;;10.52;5.90;;;11.80;99.90;;;11.11;100.00;101328.03;4186871;28;20029;-76
2023/04/10 02:43:37;;;;;;;13.02;6.53;;;11.80;99.90;;;11.08;100.00;101320.41;4202732;28;20040;-76
2023/04/10 02:45:38;;;;;;;12.50;6.40;;;11.80;99.90;;;11.13;100.00;101314.69;4202577;28;20028;-76
2023/04/10 02:47:39;;;;;;;13.38;6.95;;;11.80;99.90;;;11.08;100.00;101309.84;4201466;28;20095;-76
2023/04/10 02:49:40;;;;;;;12.32;6.43;;;11.80;99.90;;;11.08;100.00;101302.75;4198265;28;20111;-76
2023/04/10 02:51:41;;;;;;;11.32;6.43;;;11.80;99.90;;;11.08;100.00;101299.28;4186183;28;20488;-76
2023/04/10 02:53:42;;;;;;;11.43;5.50;;;11.80;99.90;;;11.00;100.00;101297.38;4184944;28;20037;-76
2023/04/10 02:55:43;;;;;;;14.70;6.13;;;11.80;99.90;;;10.98;100.00;101293.22;4185923;28;20025;-76
2023/04/10 02:57:44;;;;;;;11.48;5.22;;;11.70;99.90;;;10.92;100.00;101297.28;4186225;28;20017;-76
2023/04/10 02:59:45;;;;;;;11.23;6.00;;;11.70;99.90;;;10.90;100.00;101301.84;4184572;28;20029;-76
2023/04/10 03:01:46;;;;;;;12.05;5.97;;;11.60;99.90;;;10.84;100.00;101291.88;4185955;28;20025;-76
2023/04/10 03:03:47;;;;;;;12.35;6.13;;;11.60;99.90;;;10.86;100.00;101289.09;4194305;28;20021;-76
2023/04/10 03:05:50;;;;;;;11.68;6.47;;;11.60;99.90;;;10.86;100.00;101308.41;4185980;28;20036;-76
2023/04/10 03:07:53;;;;;;;9.13;5.55;;;11.60;99.90;;;10.86;100.00;101312.84;4186191;28;20051;-76
2023/04/10 03:09:53;;;;;;;8.43;5.55;;;11.60;99.90;;;10.87;100.00;101309.25;4185956;28;20056;-76
2023/04/10 03:11:54;;;;;;;9.57;5.30;;;11.60;99.90;;;10.93;100.00;101312.13;4184667;28;20041;-76
2023/04/10 03:13:57;;;;;;;10.27;5.35;;;11.60;99.90;;;10.97;100.00;101313.50;4185671;28;20028;-76
2023/04/10 03:15:57;;;;;;;16.73;6.72;;;11.70;99.90;;;11.02;100.00;101310.44;4185797;28;20055;-76
2023/04/10 03:17:58;;;;;;;17.33;7.82;;;11.70;99.90;;;11.08;100.00;101309.84;4185734;28;20020;-76
2023/04/10 03:19:59;;;;;;;12.05;6.53;;;11.80;99.90;;;11.13;100.00;101312.06;4185660;28;20522;-76
2023/04/10 03:22:01;;;;;;;12.52;7.38;;;11.80;99.90;;;11.10;100.00;101306.09;4187465;28;20020;-76
2023/04/10 03:24:01;;;;;;;19.35;7.85;;;11.80;99.90;;;11.14;100.00;101309.25;4201161;28;20020;-76
2023/04/10 03:26:03;;;;;;;10.63;6.50;;;11.80;99.90;;;11.11;100.00;101307.75;4202237;28;20025;-76
2023/04/10 03:28:04;;;;;;;15.20;6.43;;;11.80;99.90;;;11.15;100.00;101316.22;4200773;28;20123;-76
2023/04/10 03:30:06;;;;;;;11.85;6.18;;;11.80;99.90;;;11.14;100.00;101314.53;4202091;28;20032;-76
2023/04/10 03:32:07;;;;;;;11.88;6.38;;;11.80;99.90;;;11.15;100.00;101326.78;4185575;28;20029;-76
2023/04/10 03:34:08;;;;;;;14.07;6.57;;;11.90;99.90;;;11.18;100.00;101333.56;4184603;28;20515;-76
2023/04/10 03:36:10;;;;;;;11.40;5.65;;;11.90;99.90;;;11.19;100.00;101327.31;4188840;28;20435;-76
2023/04/10 03:38:11;;;;;;;14.98;6.75;;;11.90;99.90;;;11.24;100.00;101333.00;4198777;28;20027;-76
2023/04/10 03:40:12;;;;;;;11.20;6.15;;;11.90;99.90;;;11.22;100.00;101327.03;4185039;28;20029;-76
2023/04/10 03:42:13;;;;;;;15.38;7.20;;;11.90;99.90;;;11.21;100.00;101328.00;4186139;28;20028;-76
2023/04/10 03:44:14;;;;;;;15.57;7.22;;;11.90;99.90;;;11.21;100.00;101328.84;4183465;28;20041;-76
2023/04/10 03:46:15;;;;;;;18.02;8.73;;;11.90;99.90;;;11.24;100.00;101330.34;4186718;28;20026;-76
2023/04/10 03:48:16;;;;;;;16.48;8.45;;;11.90;99.90;;;11.26;100.00;101331.06;4188721;28;20029;-76
2023/04/10 03:50:18;;;;;;;14.80;9.15;;;12.00;99.90;;;11.23;100.00;101321.59;4190751;28;20112;-76
2023/04/10 03:52:19;;;;;;;16.17;8.90;;;11.90;99.90;;;11.24;100.00;101319.78;4188086;28;20043;-77
2023/04/10 03:54:20;;;;;;;20.20;8.90;;;11.90;99.90;;;11.27;100.00;101314.22;4187141;28;20043;-76
2023/04/10 03:56:21;;;;;;;17.73;8.95;;;11.90;99.90;;;11.25;100.00;101316.19;4201831;28;20033;-76
2023/04/10 03:58:22;;;;;;;13.70;10.00;;;11.90;99.90;;;11.22;100.00;101303.25;4200634;28;20017;-76
2023/04/10 04:00:24;;;;;;;16.67;8.80;;;11.90;99.90;;;11.17;100.00;101303.69;4201591;28;20035;-76
2023/04/10 04:02:25;;;;;;;16.73;9.85;;;11.90;99.90;;;11.17;100.00;101298.41;4200566;28;20032;-76
2023/04/10 04:04:26;;;;;;;11.98;7.88;;;11.90;99.90;;;11.15;100.00;101305.66;4195196;28;20021;-76
2023/04/10 04:06:27;;;;;;;16.02;9.18;;;11.80;99.90;;;11.13;100.00;101309.41;4185146;28;20615;-76
2023/04/10 04:08:28;;;;;;;14.40;8.85;;;11.80;99.90;;;11.08;100.00;101321.25;4185082;28;20032;-76
2023/04/10 04:10:29;;;;;;;22.83;11.13;;;11.80;99.90;;;11.08;100.00;101321.25;4185189;28;20021;-76
2023/04/10 04:12:30;;;;;;;14.90;8.98;;;11.80;99.90;;;11.08;100.00;101326.53;4185186;28;20503;-76
2023/04/10 04:14:31;;;;;;;18.27;10.07;;;11.80;99.90;;;11.07;100.00;101327.53;4184887;28;20025;-76
2023/04/10 04:16:32;;;;;;;20.58;9.93;;;11.80;99.90;;;11.09;100.00;101328.19;4184973;28;20400;-77
2023/04/10 04:18:33;;;;;;;16.38;9.90;;;11.80;99.90;;;11.11;100.00;101335.97;4183944;28;20021;-76
2023/04/10 04:20:33;;;;;;;16.77;9.77;;;11.80;99.90;;;11.09;100.00;101341.41;4185067;28;20094;-76
2023/04/10 04:22:34;;;;;;;14.48;9.18;;;11.80;99.90;;;11.11;100.00;101341.22;4185215;28;20017;-76
2023/04/10 04:24:35;;;;;;;18.60;10.00;;;11.80;99.90;;;11.11;100.00;101347.34;4183826;28;20021;-76
2023/04/10 04:26:36;;;;;;;15.98;9.27;;;11.80;99.90;;;11.16;100.00;101354.03;4184633;28;20040;-76
2023/04/10 04:28:37;;;;;;;18.45;10.38;;;11.90;99.90;;;11.17;100.00;101356.50;4183592;28;20029;-76
2023/04/10 04:30:37;;;;;;;22.88;10.77;;;11.90;99.90;;;11.21;100.00;101351.78;4184900;28;20484;-76
2023/04/10 04:32:38;;;;;;;14.48;8.25;;;11.90;99.90;;;11.21;100.00;101346.50;4183734;28;20551;-76
2023/04/10 04:34:39;;;;;;;17.13;9.52;;;11.90;99.90;;;11.21;100.00;101352.59;4167859;28;20022;-76
2023/04/10 04:36:40;;;;;;;15.00;9.55;;;12.00;99.90;;;11.28;100.00;101352.84;4201477;28;20044;-76
2023/04/10 04:38:41;;;;;;;17.00;8.90;;;12.00;99.90;;;11.31;100.00;101344.66;4201512;28;20016;-76
2023/04/10 04:40:42;;;;;;;15.85;8.73;;;12.00;99.90;;;11.28;100.00;101331.72;4200222;28;20078;-76
2023/04/10 04:42:43;;;;;;;16.73;8.70;;;12.00;99.90;;;11.32;100.00;101335.75;4183100;28;20462;-76
2023/04/10 04:44:44;;;;;;;22.58;9.88;;;12.00;99.90;;;11.35;100.00;101340.75;4188593;28;20032;-76
2023/04/10 04:46:45;;;;;;;18.77;8.45;;;12.00;99.90;;;11.34;100.00;101341.72;4183489;28;20025;-76
2023/04/10 04:48:46;;;;;;;17.13;8.48;;;12.00;99.90;;;11.38;100.00;101359.75;4194966;28;20399;-76
2023/04/10 04:50:47;;;;;;;17.30;8.63;;;12.10;99.90;;;11.49;100.00;101345.53;4200235;28;20033;-77
2023/04/10 04:52:48;;;;;;;20.17;8.50;;;12.10;99.90;;;11.42;100.00;101340.00;4196817;28;20044;-76
2023/04/10 04:54:49;;;;;;;18.10;9.38;;;12.10;99.90;;;11.48;100.00;101339.41;4190173;28;20025;-76
2023/04/10 04:56:50;;;;;;;17.63;8.20;;;12.20;99.90;;;11.43;100.00;101325.81;4201266;28;20044;-76
2023/04/10 04:58:51;;;;;;;15.68;7.75;;;12.10;99.90;;;11.44;100.00;101331.94;4201079;28;20017;-76
2023/04/10 05:00:52;;;;;;;16.52;7.50;;;12.20;99.90;;;11.43;100.00;101330.28;4201690;28;20032;-76
2023/04/10 05:02:52;;;;;;;20.75;8.00;;;12.20;99.90;;;11.45;100.00;101346.78;4203381;28;20450;-76
2023/04/10 05:04:53;;;;;;;20.23;8.00;;;12.20;99.90;;;11.44;100.00;101351.25;4204431;28;20028;-76
2023/04/10 05:06:54;;;;;;;16.17;7.22;;;12.20;99.90;;;11.46;100.00;101353.75;4203163;28;20032;-76
2023/04/10 05:08:55;;;;;;;17.45;8.13;;;12.20;99.90;;;11.48;100.00;101354.44;4204359;28;20411;-76
2023/04/10 05:10:56;;;;;;;17.92;9.05;;;12.20;99.90;;;11.49;100.00;101350.81;4204379;28;20036;-76
2023/04/10 05:12:57;;;;;;;15.05;8.68;;;12.20;99.90;;;11.50;100.00;101341.88;4204335;28;20546;-77
2023/04/10 05:14:58;;;;;;;14.25;7.45;;;12.20;99.90;;;11.48;100.00;101330.66;4202879;28;20020;-76
2023/04/10 05:16:59;;;;;;;16.27;7.57;;;12.20;99.90;;;11.50;100.00;101329.53;4202564;28;20028;-76
2023/04/10 05:19:00;;;;;;;19.17;8.20;;;12.20;99.90;;;11.52;100.00;101326.75;4204330;28;20017;-76
2023/04/10 05:21:01;;;;;;;14.52;7.65;;;12.20;99.90;;;11.52;100.00;101326.75;4204177;28;20020;-76
2023/04/10 05:23:03;;;;;;;19.77;9.52;;;12.30;99.90;;;11.53;100.00;101321.28;4190597;28;20536;-76
2023/04/10 05:25:04;;;;;;;22.50;9.48;;;12.20;99.90;;;11.53;100.00;101325.75;4202729;28;20484;-77
2023/04/10 05:27:05;;;;;;;18.08;8.10;;;12.20;99.90;;;11.55;100.00;101326.44;4187690;28;20032;-76
2023/04/10 05:29:06;;;;;;;15.30;8.63;;;12.20;99.90;;;11.51;100.00;101325.06;4187239;28;20028;-76
2023/04/10 05:31:07;;;;;;;18.70;8.85;;;12.30;99.90;;;11.55;100.00;101344.94;4187380;28;20036;-76
2023/04/10 05:33:08;;;;;;;17.27;9.00;;;12.20;99.90;;;11.56;100.00;101343.94;4187192;28;20484;-77
2023/04/10 05:35:09;;;;;;;15.77;9.10;;;12.20;99.90;;;11.53;100.00;101342.44;4192407;28;20028;-76
2023/04/10 05:37:11;;;;;;;17.73;8.90;;;12.30;99.90;;;11.58;100.00;101352.56;4202586;28;20056;-77
2023/04/10 05:39:12;;;;;;;18.25;9.10;;;12.30;99.90;;;11.57;100.00;101358.84;4203889;28;20027;-76
2023/04/10 05:41:13;;;;;;;17.13;8.90;;;12.30;99.90;;;11.55;100.00;101351.06;4203740;28;20024;-76
2023/04/10 05:43:14;;;;;;;14.25;7.57;;;12.30;99.90;;;11.58;100.00;101355.22;4197627;28;20037;-76
2023/04/10 05:45:15;;;;;;;19.38;9.00;;;12.30;99.90;;;11.65;100.00;101358.91;4202601;28;20025;-76
2023/04/10 05:47:16;;;;;;;11.82;8.00;;;12.30;99.90;;;11.60;100.00;101347.97;4187353;28;20058;-76
2023/04/10 05:49:16;;;;;;;17.73;9.00;;;12.30;99.90;;;11.66;100.00;101355.31;4187257;28;20031;-76
2023/04/10 05:51:17;;;;;;;16.60;7.75;;;12.40;99.90;;;11.70;100.00;101358.53;4187191;28;20040;-77
2023/04/10 05:53:20;;;;;;;14.88;8.05;;;12.40;99.90;;;11.70;100.00;101351.44;4193240;28;20025;-77
2023/04/10 05:55:20;;;;;;;16.92;8.02;;;12.40;99.90;;;11.68;100.00;101354.16;4202430;28;20029;-77
2023/04/10 05:57:22;;;;;;;11.40;7.60;;;12.40;99.90;;;11.70;100.00;101340.84;4201184;28;20032;-77
2023/04/10 05:59:23;;;;;;;16.70;8.57;;;12.40;99.90;;;11.72;100.00;101354.75;4190072;28;20084;-77
2023/04/10 06:01:24;;;;;;;15.85;8.10;;;12.40;99.90;;;11.73;100.00;101356.41;4193466;28;20053;-76
2023/04/10 06:03:29;;;;;;;17.70;8.90;;;12.40;99.90;;;11.74;100.00;101354.63;4202309;28;20027;-76
2023/04/10 06:05:30;;;;;;;13.02;8.93;;;12.50;99.90;;;11.75;100.00;101364.19;4202218;28;20032;-77
2023/04/10 06:07:32;;;;;;;15.23;8.45;;;12.50;99.90;;;11.79;100.00;101363.75;4199092;28;20017;-76
2023/04/10 06:09:32;;;;;;;18.60;9.55;;;12.50;99.90;;;11.82;100.00;101371.38;4185767;28;20025;-76
2023/04/10 06:11:33;;;;;;;13.57;8.50;;;12.50;99.90;;;11.83;100.00;101375.69;4186807;28;20040;-76
2023/04/10 06:13:34;;;;;;;14.13;8.65;;;12.50;99.90;;;11.87;100.00;101373.56;4185644;28;20029;-76
2023/04/10 06:15:35;;;;;;;14.30;8.38;;;12.50;99.90;;;11.87;100.00;101371.75;4187016;28;20033;-77
2023/04/10 06:17:43;;;;;;;12.70;8.48;;;12.50;99.90;;;11.91;100.00;101365.22;4186671;28;20029;-77
2023/04/10 06:19:43;;;;;;;17.13;9.10;;;12.60;99.90;;;11.94;100.00;101372.84;4185711;28;20029;-76
2023/04/10 06:21:45;;;;;;;12.88;8.02;;;12.60;99.90;;;11.96;100.00;101378.81;4186685;28;20029;-76
2023/04/10 06:23:46;;;;;;;16.52;9.07;;;12.60;99.90;;;12.01;100.00;101378.34;4186812;28;20503;-76
2023/04/10 06:25:47;;;;;;;14.23;8.98;;;12.60;99.90;;;11.99;100.00;101381.16;4186617;28;20028;-76
2023/04/10 06:27:48;;;;;;;15.75;8.40;;;12.70;99.90;;;12.03;100.00;101382.53;4185440;28;20021;-76
2023/04/10 06:29:49;;;;;;;11.93;8.13;;;12.70;99.90;;;12.03;100.00;101377.22;4186199;28;20029;-76
2023/04/10 06:31:50;;;;;;;15.93;7.70;;;12.70;99.90;;;12.08;100.00;101376.78;4185378;28;20063;-76
2023/04/10 06:33:50;;;;;;;14.55;8.38;;;12.70;99.90;;;12.04;100.00;101368.31;4186625;28;20029;-76
2023/04/10 06:35:51;;;;;;;12.38;7.80;;;12.70;99.90;;;12.11;100.00;101374.66;4196100;28;20028;-76
2023/04/10 06:37:52;;;;;;;12.70;8.07;;;12.80;99.90;;;12.11;100.00;101376.47;4200763;28;20099;-76
2023/04/10 06:40:05;;;;;;;14.98;7.57;;;12.80;99.90;;;12.11;100.00;101379.94;4190428;28;20078;-76
2023/04/10 06:42:06;;;;;;;18.80;8.13;;;12.80;99.90;;;12.18;100.00;101380.19;4202799;28;20047;-76
2023/04/10 06:44:07;;;;;;;11.63;7.10;;;12.80;99.90;;;12.15;100.00;101376.03;4189121;28;20053;-76
2023/04/10 06:46:08;;;;;;;12.27;7.25;;;12.80;99.90;;;12.16;100.00;101372.38;4201373;28;20142;-76
2023/04/10 06:48:08;;;;;;;12.43;7.43;;;12.80;99.90;;;12.21;100.00;101364.81;4173568;28;20044;-77
2023/04/10 06:50:09;;;;;;;11.38;6.50;;;12.90;99.90;;;12.26;100.00;101363.53;4194613;28;20554;-76
2023/04/10 06:52:10;;;;;;;10.18;6.93;;;12.90;99.90;;;12.29;100.00;101371.19;4202726;28;20032;-76
2023/04/10 06:54:11;;;;;;;11.57;7.93;;;13.00;99.90;;;12.31;100.00;101369.19;4202597;28;20408;-76
2023/04/10 06:56:12;;;;;;;11.82;6.97;;;13.00;99.90;;;12.33;100.00;101361.97;4202611;28;20036;-76
2023/04/10 06:58:13;;;;;;;9.93;6.43;;;13.00;99.90;;;12.37;100.00;101363.31;4202689;28;20017;-76
2023/04/10 07:00:14;;;;;;;10.35;6.47;;;13.10;99.90;;;12.40;100.00;101363.84;4202320;28;20024;-76
2023/04/10 07:02:15;;;;;;;10.70;7.05;;;13.10;99.90;;;12.41;100.00;101354.94;4202399;28;20024;-77
2023/04/10 07:04:16;;;;;;;11.80;5.88;;;13.10;99.90;;;12.52;100.00;101367.06;4202503;28;20028;-76
2023/04/10 07:06:17;;;;;;;10.07;5.90;;;13.10;99.90;;;12.55;100.00;101348.25;4202311;28;20040;-76
2023/04/10 07:08:18;;;;;;;12.55;6.63;;;13.20;99.90;;;12.62;100.00;101341.34;4201251;28;20029;-75
2023/04/10 07:10:19;;;;;;;12.00;6.00;;;13.30;99.90;;;12.64;100.00;101344.66;4202268;28;20032;-76
2023/04/10 07:12:19;;;;;;;11.05;6.70;;;13.30;99.90;;;12.68;100.00;101340.75;4201282;28;20025;-75
2023/04/10 07:14:20;;;;;;;15.02;6.55;;;13.30;99.90;;;12.69;100.00;101343.22;4200995;28;20556;-76
2023/04/10 07:16:21;;;;;;;9.70;6.30;;;13.30;99.90;;;12.70;100.00;101354.63;4201028;28;20406;-75
2023/04/10 07:18:22;;;;;;;11.55;6.78;;;13.40;99.90;;;12.71;100.00;101348.38;4188325;28;20075;-75
2023/04/10 07:20:23;;;;;;;8.73;5.90;;;13.40;99.90;;;12.75;100.00;101341.78;4184646;28;20017;-75
2023/04/10 07:22:24;;;;;;;12.95;6.40;;;13.40;99.90;;;12.78;100.00;101331.69;4185786;28;20032;-75
2023/04/10 07:24:25;;;;;;;11.85;5.85;;;13.50;99.90;;;12.78;100.00;101331.69;4185569;28;20483;-75
2023/04/10 07:26:26;;;;;;;12.10;6.05;;;13.50;99.90;;;12.80;100.00;101336.84;4194681;28;20028;-76
2023/04/10 07:28:26;;;;;;;11.32;5.43;;;13.50;99.90;;;12.86;100.00;101344.16;4201981;28;20032;-75
2023/04/10 07:30:27;;;;;;;9.68;5.15;;;13.50;99.90;;;12.90;100.00;101344.69;4202145;28;20036;-76
2023/04/10 07:32:28;;;;;;;7.75;4.47;;;13.60;99.90;;;12.90;100.00;101334.09;4200888;28;20495;-75
2023/04/10 07:34:31;;;;;;;11.80;4.32;;;13.60;99.90;;;12.95;100.00;101331.81;4200785;28;20028;-75
2023/04/10 07:36:32;;;;;;;10.52;4.68;;;13.60;99.90;;;12.94;100.00;101330.97;4197559;28;20036;-76
2023/04/10 07:38:33;;;;;;;10.85;5.93;;;13.70;99.90;;;12.97;100.00;101324.53;4174013;28;20029;-76
2023/04/10 07:40:33;;;;;;;10.32;4.50;;;13.60;99.90;;;12.93;100.00;101317.91;4195093;28;20055;-76
2023/04/10 07:42:35;;;;;;;10.90;5.00;;;13.60;99.90;;;12.97;100.00;101314.78;4201903;28;20024;-76
2023/04/10 07:44:36;;;;;;;9.52;4.45;;;13.70;99.90;;;13.05;100.00;101311.34;4194222;28;20048;-76
2023/04/10 07:46:37;;;;;;;7.45;4.20;;;13.70;99.90;;;13.18;100.00;101317.06;4195685;28;20032;-76
2023/04/10 07:48:38;;;;;;;9.07;4.03;;;13.80;99.90;;;13.25;100.00;101318.94;4200608;28;20051;-76
2023/04/10 07:50:39;;;;;;;8.05;4.78;;;13.90;99.90;;;13.32;100.00;101319.94;4200240;28;20403;-76
2023/04/10 07:52:40;;;;;;;11.07;5.20;;;14.00;99.90;;;13.30;100.00;101316.63;4198427;28;20487;-76
2023/04/10 07:54:41;;;;;;;11.70;5.10;;;14.00;99.90;;;13.32;100.00;101327.88;4201951;28;20036;-76
2023/04/10 07:56:41;;;;;;;12.23;4.95;;;14.00;99.90;;;13.31;100.00;101317.47;4193699;28;20029;-76
2023/04/10 07:58:42;;;;;;;8.45;5.20;;;14.00;99.90;;;13.32;100.00;101324.41;4200289;28;20032;-76
2023/04/10 08:00:43;;;;;;;10.60;4.72;;;14.00;99.90;;;13.44;100.00;101320.47;4200607;28;20095;-76
2023/04/10 08:02:44;;;;;;;10.75;5.80;;;14.00;99.90;;;13.49;100.00;101325.31;4201917;28;20028;-76
2023/04/10 08:04:45;;;;;;;11.40;4.78;;;14.10;99.90;;;13.54;100.00;101333.59;4200640;28;20369;-76
2023/04/10 08:06:46;;;;;;;10.57;5.30;;;14.20;99.90;;;13.56;100.00;101340.38;4189973;28;20040;-76
2023/04/10 08:08:47;;;;;;;6.75;4.85;;;14.20;99.90;;;13.61;100.00;101324.03;4185078;28;20025;-76
2023/04/10 08:10:48;;;;;;;12.10;5.78;;;14.30;99.90;;;13.74;100.00;101330.50;4184035;28;20563;-76
2023/04/10 08:12:49;;;;;;;9.77;5.22;;;14.40;99.90;;;13.82;100.00;101342.97;4191689;28;20028;-76
2023/04/10 08:14:50;;;;;;;11.13;4.50;;;14.40;99.90;;;13.83;100.00;101340.13;4200466;28;20033;-75
2023/04/10 08:16:51;;;;;;;12.55;5.07;;;14.50;99.90;;;13.87;100.00;101345.94;4200708;28;20028;-76
2023/04/10 08:18:53;;;;;;;9.38;5.07;;;14.50;99.90;;;13.77;100.00;101350.56;4185282;28;20028;-76